createdAt,value
2022-07-31T00:01:49.316Z,331
2022-07-31T00:03:57.920Z,331
2022-07-31T00:06:04.156Z,331
2022-07-31T00:08:16.205Z,331
2022-07-31T00:10:22.559Z,331
2022-07-31T00:12:28.297Z,331
2022-07-31T00:14:33.958Z,331
2022-07-31T00:16:39.528Z,331
2022-07-31T00:18:45.023Z,332
2022-07-31T00:20:51.133Z,332
2022-07-31T00:22:56.880Z,333
2022-07-31T00:25:02.888Z,334
2022-07-31T00:27:09.352Z,334
2022-07-31T00:29:18.927Z,334
2022-07-31T00:31:24.312Z,334
2022-07-31T00:33:31.425Z,334
2022-07-31T00:35:37.519Z,334
2022-07-31T00:37:44.166Z,334
2022-07-31T00:39:50.078Z,334
2022-07-31T00:41:55.647Z,334
2022-07-31T00:44:02.066Z,336
2022-07-31T00:46:18.992Z,334
2022-07-31T00:48:29.228Z,336
2022-07-31T00:50:35.581Z,336
2022-07-31T00:52:41.652Z,336
2022-07-31T00:54:51.581Z,336
2022-07-31T00:56:57.354Z,336
2022-07-31T00:59:03.434Z,336
2022-07-31T01:01:09.490Z,336
2022-07-31T01:03:15.341Z,336
2022-07-31T01:05:20.804Z,336
2022-07-31T01:07:26.743Z,336
2022-07-31T01:09:32.401Z,336
2022-07-31T01:11:41.344Z,337
2022-07-31T01:13:47.667Z,337
2022-07-31T01:15:53.307Z,337
2022-07-31T01:17:58.931Z,337
2022-07-31T01:20:04.623Z,337
2022-07-31T01:22:37.461Z,337
2022-07-31T01:24:42.990Z,337
2022-07-31T01:26:48.736Z,337
2022-07-31T01:28:54.276Z,337
2022-07-31T01:31:28.370Z,337
2022-07-31T01:33:34.003Z,337
2022-07-31T01:35:42.346Z,337
2022-07-31T01:37:50.841Z,337
2022-07-31T01:39:56.250Z,337
2022-07-31T01:42:02.807Z,337
2022-07-31T01:44:15.692Z,337
2022-07-31T01:46:21.746Z,337
2022-07-31T01:48:27.616Z,337
2022-07-31T01:50:45.839Z,336
2022-07-31T01:52:51.329Z,336
2022-07-31T01:54:57.287Z,336
2022-07-31T01:57:02.819Z,334
2022-07-31T01:59:25.835Z,334
2022-07-31T02:01:36.555Z,333
2022-07-31T02:03:56.258Z,331
2022-07-31T02:06:05.932Z,331
2022-07-31T02:08:11.642Z,331
2022-07-31T02:10:17.579Z,331
2022-07-31T02:12:35.916Z,330
2022-07-31T02:14:41.896Z,330
2022-07-31T02:16:48.066Z,330
2022-07-31T02:18:53.669Z,329
2022-07-31T02:20:59.726Z,329
2022-07-31T02:23:05.641Z,329
2022-07-31T02:25:11.127Z,329
2022-07-31T02:28:00.615Z,329
2022-07-31T02:30:06.720Z,329
2022-07-31T02:32:13.284Z,329
2022-07-31T02:34:19.055Z,329
2022-07-31T02:36:33.636Z,329
2022-07-31T02:38:39.426Z,329
2022-07-31T02:40:46.227Z,329
2022-07-31T02:42:51.784Z,329
2022-07-31T02:44:57.310Z,329
2022-07-31T02:47:03.130Z,329
2022-07-31T02:49:08.879Z,330
2022-07-31T02:51:15.655Z,330
2022-07-31T02:53:21.082Z,330
2022-07-31T02:55:27.009Z,330
2022-07-31T02:57:32.605Z,330
2022-07-31T02:59:38.109Z,330
2022-07-31T03:01:43.532Z,330
2022-07-31T03:03:49.187Z,330
2022-07-31T03:05:54.856Z,331
2022-07-31T03:08:00.564Z,331
2022-07-31T03:10:06.629Z,331
2022-07-31T03:12:12.177Z,331
2022-07-31T03:14:17.791Z,331
2022-07-31T03:16:23.222Z,331
2022-07-31T03:18:31.727Z,333
2022-07-31T03:20:37.708Z,332
2022-07-31T03:22:43.613Z,334
2022-07-31T03:24:52.291Z,334
2022-07-31T03:26:57.904Z,334
2022-07-31T03:29:03.827Z,334
2022-07-31T03:31:46.982Z,334
2022-07-31T03:33:52.686Z,334
2022-07-31T03:35:58.323Z,334
2022-07-31T03:38:48.902Z,334
2022-07-31T03:40:56.173Z,336
2022-07-31T03:43:02.018Z,336
2022-07-31T03:45:07.296Z,336
2022-07-31T03:47:13.182Z,336
2022-07-31T03:49:22.895Z,336
2022-07-31T03:51:28.723Z,336
2022-07-31T03:53:34.361Z,336
2022-07-31T03:55:40.179Z,336
2022-07-31T03:57:49.070Z,336
2022-07-31T03:59:56.209Z,336
2022-07-31T04:02:12.193Z,336
2022-07-31T04:04:21.860Z,337
2022-07-31T04:06:27.677Z,337
2022-07-31T04:08:33.522Z,337
2022-07-31T04:10:39.172Z,337
2022-07-31T04:12:44.799Z,337
2022-07-31T04:14:50.286Z,337
2022-07-31T04:16:55.930Z,337
2022-07-31T04:19:01.575Z,337
2022-07-31T04:21:07.151Z,337
2022-07-31T04:23:15.451Z,337
2022-07-31T04:25:21.077Z,337
2022-07-31T04:27:26.757Z,337
2022-07-31T04:29:32.502Z,337
2022-07-31T04:31:38.284Z,337
2022-07-31T04:33:57.471Z,338
2022-07-31T04:36:03.093Z,338
2022-07-31T04:38:09.361Z,338
2022-07-31T04:40:15.189Z,338
2022-07-31T04:42:20.743Z,338
2022-07-31T04:44:26.686Z,338
2022-07-31T04:46:32.359Z,338
2022-07-31T04:48:46.492Z,338
2022-07-31T04:50:55.160Z,339
2022-07-31T04:53:01.335Z,338
2022-07-31T04:55:07.161Z,339
2022-07-31T04:57:13.529Z,339
2022-07-31T04:59:22.965Z,339
2022-07-31T05:02:04.527Z,339
2022-07-31T05:04:11.754Z,339
2022-07-31T05:06:18.690Z,339
2022-07-31T05:08:24.342Z,339
2022-07-31T05:10:30.435Z,339
2022-07-31T05:12:36.991Z,339
2022-07-31T05:14:42.892Z,339
2022-07-31T05:16:49.712Z,339
2022-07-31T05:18:56.770Z,339
2022-07-31T05:21:02.683Z,339
2022-07-31T05:23:09.689Z,339
2022-07-31T05:25:15.744Z,339
2022-07-31T05:27:24.621Z,339
2022-07-31T05:29:36.852Z,340
2022-07-31T05:32:02.938Z,340
2022-07-31T05:34:09.463Z,340
2022-07-31T05:36:15.517Z,340
2022-07-31T05:38:21.458Z,340
2022-07-31T05:40:28.090Z,340
2022-07-31T05:42:35.176Z,340
2022-07-31T05:44:41.624Z,340
2022-07-31T05:46:48.526Z,339
2022-07-31T05:48:55.843Z,340
2022-07-31T05:51:08.616Z,339
2022-07-31T05:53:15.784Z,339
2022-07-31T05:55:23.049Z,339
2022-07-31T05:57:37.308Z,339
2022-07-31T05:59:43.792Z,339
2022-07-31T06:01:50.715Z,339
2022-07-31T06:03:58.623Z,339
2022-07-31T06:06:08.528Z,339
2022-07-31T06:08:14.700Z,339
2022-07-31T06:10:21.714Z,338
2022-07-31T06:12:28.090Z,338
2022-07-31T06:14:34.792Z,338
2022-07-31T06:16:42.717Z,338
2022-07-31T06:18:49.767Z,337
2022-07-31T06:20:57.576Z,337
2022-07-31T06:23:23.209Z,337
2022-07-31T06:25:42.939Z,337
2022-07-31T06:28:07.059Z,336
2022-07-31T06:30:18.768Z,336
2022-07-31T06:32:26.161Z,336
2022-07-31T06:34:34.033Z,336
2022-07-31T06:36:41.608Z,336
2022-07-31T06:38:49.717Z,336
2022-07-31T06:40:57.309Z,336
2022-07-31T06:43:10.083Z,336
2022-07-31T06:45:52.812Z,336
2022-07-31T06:48:02.216Z,337
2022-07-31T06:50:10.782Z,337
2022-07-31T06:52:17.889Z,337
2022-07-31T06:54:29.671Z,336
2022-07-31T06:56:36.960Z,337
2022-07-31T06:58:43.934Z,337
2022-07-31T07:00:54.109Z,337
2022-07-31T07:03:01.321Z,337
2022-07-31T07:05:10.291Z,337
2022-07-31T07:07:18.195Z,337
2022-07-31T07:09:25.679Z,337
2022-07-31T07:11:34.946Z,337
2022-07-31T07:13:49.545Z,337
2022-07-31T07:15:57.260Z,337
2022-07-31T07:18:04.891Z,337
2022-07-31T07:20:12.772Z,337
2022-07-31T07:22:35.017Z,338
2022-07-31T07:24:41.767Z,338
2022-07-31T07:26:49.168Z,338
2022-07-31T07:28:56.561Z,338
2022-07-31T07:31:03.800Z,338
2022-07-31T07:33:10.837Z,338
2022-07-31T07:35:18.467Z,339
2022-07-31T07:37:28.391Z,338
2022-07-31T07:39:35.747Z,339
2022-07-31T07:41:45.854Z,339
2022-07-31T07:43:56.764Z,339
2022-07-31T07:46:04.401Z,339
2022-07-31T07:48:11.881Z,339
2022-07-31T07:50:19.327Z,339
2022-07-31T07:52:31.404Z,339
2022-07-31T07:54:38.200Z,339
2022-07-31T07:56:46.775Z,339
2022-07-31T07:58:58.126Z,339
2022-07-31T08:01:06.926Z,339
2022-07-31T08:03:54.355Z,339
2022-07-31T08:06:03.631Z,340
2022-07-31T08:08:10.979Z,340
2022-07-31T08:10:18.263Z,340
2022-07-31T08:12:25.397Z,340
2022-07-31T08:14:34.579Z,340
2022-07-31T08:16:41.292Z,340
2022-07-31T08:18:49.084Z,340
2022-07-31T08:20:56.007Z,340
2022-07-31T08:23:03.245Z,340
2022-07-31T08:25:18.211Z,340
2022-07-31T08:27:44.418Z,340
2022-07-31T08:29:58.413Z,340
2022-07-31T08:32:07.355Z,340
2022-07-31T08:34:37.995Z,341
2022-07-31T08:36:50.989Z,340
2022-07-31T08:38:59.251Z,341
2022-07-31T08:41:06.366Z,341
2022-07-31T08:44:08.432Z,341
2022-07-31T08:46:16.538Z,341
2022-07-31T08:48:23.689Z,341
2022-07-31T08:50:31.072Z,341
2022-07-31T08:52:39.411Z,341
2022-07-31T08:54:47.804Z,341
2022-07-31T08:56:56.654Z,341
2022-07-31T08:59:04.165Z,341
2022-07-31T09:01:12.917Z,342
2022-07-31T09:03:21.042Z,341
2022-07-31T09:05:43.250Z,342
2022-07-31T09:07:50.146Z,342
2022-07-31T09:09:57.217Z,343
2022-07-31T09:12:04.627Z,343
2022-07-31T09:14:11.737Z,343
2022-07-31T09:16:21.576Z,343
2022-07-31T09:18:36.226Z,343
2022-07-31T09:20:43.358Z,343
2022-07-31T09:22:51.057Z,343
2022-07-31T09:24:59.165Z,343
2022-07-31T09:27:09.131Z,343
2022-07-31T09:29:16.772Z,343
2022-07-31T09:31:25.415Z,343
2022-07-31T09:33:34.419Z,343
2022-07-31T09:35:43.156Z,343
2022-07-31T09:37:50.199Z,343
2022-07-31T09:40:00.417Z,344
2022-07-31T09:42:21.822Z,344
2022-07-31T09:44:29.439Z,344
2022-07-31T09:46:37.279Z,344
2022-07-31T09:48:48.804Z,344
2022-07-31T09:51:06.515Z,344
2022-07-31T09:53:14.245Z,344
2022-07-31T09:55:22.432Z,344
2022-07-31T09:57:31.305Z,344
2022-07-31T09:59:41.249Z,344
2022-07-31T10:01:49.150Z,344
2022-07-31T10:03:57.257Z,344
2022-07-31T10:06:05.266Z,344
2022-07-31T10:08:12.306Z,344
2022-07-31T10:10:20.323Z,344
2022-07-31T10:12:29.427Z,344
2022-07-31T10:14:36.489Z,344
2022-07-31T10:16:43.456Z,344
2022-07-31T10:18:54.427Z,344
2022-07-31T10:21:03.938Z,344
2022-07-31T10:23:11.743Z,344
2022-07-31T10:25:20.531Z,344
2022-07-31T10:27:27.894Z,344
2022-07-31T10:29:35.865Z,344
2022-07-31T10:31:43.922Z,345
2022-07-31T10:33:54.966Z,344
2022-07-31T10:36:02.032Z,345
2022-07-31T10:38:10.199Z,344
2022-07-31T10:40:20.115Z,345
2022-07-31T10:42:27.707Z,345
2022-07-31T10:44:41.245Z,344
2022-07-31T10:46:50.384Z,344
2022-07-31T10:48:57.200Z,344
2022-07-31T10:51:06.930Z,344
2022-07-31T10:53:14.332Z,344
2022-07-31T10:55:22.234Z,344
2022-07-31T10:57:30.400Z,344
2022-07-31T10:59:42.953Z,344
2022-07-31T11:01:57.107Z,344
2022-07-31T11:04:06.037Z,344
2022-07-31T11:06:21.237Z,344
2022-07-31T11:08:34.160Z,344
2022-07-31T11:10:45.978Z,344
2022-07-31T11:12:54.511Z,344
2022-07-31T11:15:05.103Z,344
2022-07-31T11:17:14.009Z,343
2022-07-31T11:20:36.558Z,343
2022-07-31T11:22:45.489Z,343
2022-07-31T11:24:54.923Z,343
2022-07-31T11:27:07.526Z,343
2022-07-31T11:30:13.570Z,343
2022-07-31T11:32:34.383Z,343
2022-07-31T11:34:51.396Z,343
2022-07-31T11:37:02.355Z,343
2022-07-31T11:39:19.191Z,343
2022-07-31T11:41:52.200Z,343
2022-07-31T11:44:01.654Z,343
2022-07-31T11:46:12.889Z,343
2022-07-31T11:48:27.310Z,343
2022-07-31T11:50:45.047Z,343
2022-07-31T11:52:54.002Z,343
2022-07-31T11:55:01.563Z,343
2022-07-31T11:57:14.474Z,343
2022-07-31T11:59:51.468Z,343
2022-07-31T12:02:03.277Z,343
2022-07-31T12:04:15.438Z,343
2022-07-31T12:06:24.179Z,343
2022-07-31T12:08:33.197Z,343
2022-07-31T12:10:41.270Z,343
2022-07-31T12:12:48.849Z,343
2022-07-31T12:14:56.068Z,343
2022-07-31T12:17:03.786Z,343
2022-07-31T12:19:12.122Z,343
2022-07-31T12:21:19.469Z,344
2022-07-31T12:23:45.040Z,343
2022-07-31T12:25:53.830Z,344
2022-07-31T12:28:01.092Z,344
2022-07-31T12:30:09.211Z,344
2022-07-31T12:32:16.615Z,344
2022-07-31T12:34:26.461Z,344
2022-07-31T12:36:36.942Z,344
2022-07-31T12:38:51.871Z,344
2022-07-31T12:40:58.928Z,344
2022-07-31T12:43:07.213Z,344
2022-07-31T12:45:23.887Z,344
2022-07-31T12:47:32.513Z,344
2022-07-31T12:49:42.746Z,344
2022-07-31T12:51:51.096Z,344
2022-07-31T12:53:58.006Z,344
2022-07-31T12:56:05.418Z,344
2022-07-31T12:58:11.593Z,344
2022-07-31T13:00:18.645Z,344
2022-07-31T13:02:25.718Z,345
2022-07-31T13:05:01.690Z,345
2022-07-31T13:23:28.121Z,345
2022-07-31T13:45:38.427Z,346
2022-07-31T13:48:02.417Z,346
2022-07-31T13:50:15.037Z,346
2022-07-31T13:52:23.625Z,346
2022-07-31T13:54:33.774Z,348
2022-07-31T13:56:46.452Z,348
2022-07-31T13:58:54.405Z,348
2022-07-31T14:01:08.386Z,348
2022-07-31T14:03:29.122Z,348
2022-07-31T14:05:46.996Z,348
2022-07-31T14:09:03.940Z,348
2022-07-31T14:11:24.712Z,348
2022-07-31T14:13:46.652Z,348
2022-07-31T14:15:54.703Z,348
2022-07-31T14:18:08.208Z,348
2022-07-31T14:20:16.975Z,348
2022-07-31T14:22:24.809Z,348
2022-07-31T14:24:35.349Z,348
2022-07-31T14:26:42.796Z,348
2022-07-31T14:28:50.669Z,348
2022-07-31T14:30:58.934Z,348
2022-07-31T14:33:06.094Z,348
2022-07-31T14:35:14.419Z,349
2022-07-31T14:37:24.449Z,349
2022-07-31T14:39:31.882Z,349
2022-07-31T14:41:50.474Z,349
2022-07-31T14:44:00.839Z,349
2022-07-31T14:46:11.864Z,349
2022-07-31T14:48:19.877Z,349
2022-07-31T14:50:28.372Z,349
2022-07-31T14:52:50.059Z,349
2022-07-31T14:54:57.381Z,349
2022-07-31T14:57:05.614Z,349
2022-07-31T14:59:14.119Z,349
2022-07-31T15:01:23.197Z,349
2022-07-31T15:03:40.437Z,349
2022-07-31T15:07:39.631Z,349
2022-07-31T15:09:54.299Z,349
2022-07-31T15:12:03.738Z,349
2022-07-31T15:14:11.353Z,349
2022-07-31T15:16:19.947Z,349
2022-07-31T15:18:29.224Z,349
2022-07-31T15:20:36.825Z,350
2022-07-31T15:22:45.702Z,350
2022-07-31T15:25:08.930Z,349
2022-07-31T15:27:16.728Z,349
2022-07-31T15:29:25.005Z,350
2022-07-31T15:32:15.394Z,349
2022-07-31T15:34:23.020Z,350
2022-07-31T15:36:32.162Z,350
2022-07-31T15:38:40.628Z,350
2022-07-31T15:40:48.842Z,350
2022-07-31T15:42:57.919Z,350
2022-07-31T15:45:05.502Z,350
2022-07-31T15:47:15.324Z,350
2022-07-31T15:49:26.513Z,350
2022-07-31T15:51:50.371Z,350
2022-07-31T15:54:00.236Z,350
2022-07-31T15:56:10.826Z,350
2022-07-31T15:58:19.738Z,350
2022-07-31T16:00:29.191Z,350
2022-07-31T16:02:38.384Z,350
2022-07-31T16:05:11.644Z,350
2022-07-31T16:08:38.321Z,350
2022-07-31T16:10:46.013Z,350
2022-07-31T16:12:59.254Z,351
2022-07-31T16:15:11.651Z,351
2022-07-31T16:17:19.312Z,351
2022-07-31T16:19:27.486Z,351
2022-07-31T16:21:41.770Z,351
2022-07-31T16:23:51.439Z,351
2022-07-31T16:26:01.436Z,351
2022-07-31T16:28:09.488Z,351
2022-07-31T16:30:17.174Z,351
2022-07-31T16:32:25.028Z,351
2022-07-31T16:34:32.356Z,351
2022-07-31T16:36:40.213Z,351
2022-07-31T16:39:22.225Z,351
2022-07-31T16:41:30.869Z,351
2022-07-31T16:43:56.411Z,351
2022-07-31T16:46:03.870Z,351
2022-07-31T16:48:15.060Z,351
2022-07-31T16:50:23.080Z,351
2022-07-31T16:52:30.511Z,352
2022-07-31T16:54:38.097Z,351
2022-07-31T16:56:45.928Z,352
2022-07-31T16:58:58.208Z,352
2022-07-31T17:02:01.936Z,352
2022-07-31T17:04:11.175Z,353
2022-07-31T17:06:37.811Z,353
2022-07-31T17:08:47.210Z,353
2022-07-31T17:10:58.041Z,353
2022-07-31T17:13:05.392Z,353
2022-07-31T17:15:13.724Z,353
2022-07-31T17:17:21.908Z,353
2022-07-31T17:19:49.295Z,353
2022-07-31T17:22:03.611Z,353
2022-07-31T17:24:20.449Z,353
2022-07-31T17:26:34.290Z,353
2022-07-31T17:28:42.159Z,353
2022-07-31T17:30:49.934Z,353
2022-07-31T17:32:56.817Z,353
2022-07-31T17:35:04.973Z,353
2022-07-31T17:37:14.955Z,353
2022-07-31T17:39:26.158Z,354
2022-07-31T17:41:38.830Z,353
2022-07-31T17:43:56.276Z,354
2022-07-31T17:46:28.412Z,354
2022-07-31T17:49:23.880Z,354
2022-07-31T17:51:33.212Z,354
2022-07-31T17:54:01.433Z,354
2022-07-31T17:56:15.484Z,354
2022-07-31T17:58:22.735Z,354
2022-07-31T18:00:36.824Z,354
2022-07-31T18:02:47.449Z,354
2022-07-31T18:05:01.106Z,354
2022-07-31T18:07:14.717Z,354
2022-07-31T18:09:33.243Z,354
2022-07-31T18:11:44.233Z,354
2022-07-31T18:14:03.761Z,354
2022-07-31T18:16:15.588Z,354
2022-07-31T18:18:29.852Z,354
2022-07-31T18:20:38.095Z,354
2022-07-31T18:22:55.481Z,354
2022-07-31T18:25:07.226Z,354
2022-07-31T18:27:18.612Z,354
2022-07-31T18:29:28.071Z,354
2022-07-31T18:31:46.413Z,354
2022-07-31T18:33:54.278Z,354
2022-07-31T18:36:02.365Z,354
2022-07-31T18:38:11.895Z,354
2022-07-31T18:40:24.990Z,354
2022-07-31T18:42:34.476Z,354
2022-07-31T18:44:49.446Z,354
2022-07-31T18:47:02.804Z,354
2022-07-31T18:51:07.611Z,354
2022-07-31T18:53:16.514Z,354
2022-07-31T18:55:29.667Z,354
2022-07-31T18:57:39.326Z,354
2022-07-31T18:59:50.510Z,354
2022-07-31T19:01:59.623Z,354
2022-07-31T19:04:08.631Z,354
2022-07-31T19:06:16.199Z,354
2022-07-31T19:08:24.520Z,355
2022-07-31T19:10:36.186Z,354
2022-07-31T19:12:43.806Z,354
2022-07-31T19:14:52.614Z,354
2022-07-31T19:17:01.076Z,355
2022-07-31T19:19:12.491Z,355
2022-07-31T19:21:46.258Z,354
2022-07-31T19:23:54.516Z,355
2022-07-31T19:26:07.460Z,355
2022-07-31T19:28:19.114Z,355
2022-07-31T19:30:35.352Z,354
2022-07-31T19:32:42.832Z,355
2022-07-31T19:34:55.553Z,355
2022-07-31T19:37:10.314Z,355
2022-07-31T19:39:20.883Z,355
2022-07-31T19:41:30.644Z,355
2022-07-31T19:43:40.452Z,355
2022-07-31T19:46:15.732Z,355
2022-07-31T19:48:24.018Z,355
2022-07-31T19:50:31.934Z,355
2022-07-31T19:52:45.159Z,355
2022-07-31T19:54:55.515Z,355
2022-07-31T19:57:05.773Z,355
2022-07-31T19:59:17.434Z,355
2022-07-31T20:01:28.097Z,355
2022-07-31T20:03:38.649Z,355
2022-07-31T20:05:48.290Z,355
2022-07-31T20:07:57.108Z,355
2022-07-31T20:10:06.125Z,355
2022-07-31T20:12:15.460Z,355
2022-07-31T20:14:25.176Z,355
2022-07-31T20:16:32.262Z,355
2022-07-31T20:18:41.321Z,355
2022-07-31T20:20:52.251Z,355
2022-07-31T20:23:03.713Z,355
2022-07-31T20:25:23.751Z,355
2022-07-31T20:27:32.319Z,355
2022-07-31T20:29:39.671Z,355
2022-07-31T20:31:48.027Z,355
2022-07-31T20:34:00.502Z,355
2022-07-31T20:36:08.397Z,355
2022-07-31T20:38:19.930Z,355
2022-07-31T20:40:35.005Z,355
2022-07-31T20:42:43.409Z,355
2022-07-31T20:44:51.193Z,355
2022-07-31T20:46:59.301Z,355
2022-07-31T20:49:07.325Z,355
2022-07-31T20:51:41.301Z,355
2022-07-31T20:53:50.327Z,355
2022-07-31T20:55:58.709Z,355
2022-07-31T20:58:09.246Z,356
2022-07-31T21:00:18.013Z,356
2022-07-31T21:02:26.345Z,356
2022-07-31T21:04:35.205Z,355
2022-07-31T21:06:44.955Z,356
2022-07-31T21:08:52.573Z,356
2022-07-31T21:11:04.740Z,356
2022-07-31T21:13:13.744Z,356
2022-07-31T21:15:48.485Z,356
2022-07-31T21:17:55.586Z,356
2022-07-31T21:20:04.260Z,356
2022-07-31T21:22:12.587Z,356
2022-07-31T21:24:20.644Z,356
2022-07-31T21:26:31.861Z,356
2022-07-31T21:28:41.316Z,356
2022-07-31T21:30:49.912Z,356
2022-07-31T21:32:56.359Z,356
2022-07-31T21:35:02.780Z,356
2022-07-31T21:37:09.485Z,356
2022-07-31T21:39:28.882Z,356
2022-07-31T21:41:35.664Z,356
2022-07-31T21:44:03.061Z,356
2022-07-31T21:46:18.975Z,356
2022-07-31T21:48:26.726Z,356
2022-07-31T21:50:32.666Z,356
2022-07-31T21:52:39.105Z,356
2022-07-31T21:54:45.415Z,356
2022-07-31T21:56:51.109Z,356
2022-07-31T21:58:57.051Z,356
2022-07-31T22:01:03.310Z,356
2022-07-31T22:03:10.028Z,356
2022-07-31T22:05:17.659Z,356
2022-07-31T22:07:24.380Z,356
2022-07-31T22:09:34.627Z,356
2022-07-31T22:11:41.128Z,356
2022-07-31T22:14:10.767Z,356
2022-07-31T22:16:17.538Z,356
2022-07-31T22:18:27.679Z,356
2022-07-31T22:20:34.130Z,357
2022-07-31T22:22:40.512Z,356
2022-07-31T22:24:47.174Z,357
2022-07-31T22:26:53.546Z,357
2022-07-31T22:28:59.355Z,357
2022-07-31T22:31:05.046Z,357
2022-07-31T22:33:10.895Z,357
2022-07-31T22:35:17.318Z,357
2022-07-31T22:37:23.243Z,357
2022-07-31T22:39:29.010Z,357
2022-07-31T22:41:35.670Z,357
2022-07-31T22:44:21.422Z,357
2022-07-31T22:46:28.907Z,357
2022-07-31T22:48:39.216Z,357
2022-07-31T22:50:45.410Z,357
2022-07-31T22:52:51.622Z,357
2022-07-31T22:54:57.429Z,357
2022-07-31T22:57:04.383Z,357
2022-07-31T22:59:09.993Z,357
2022-07-31T23:01:16.305Z,357
2022-07-31T23:03:22.159Z,357
2022-07-31T23:05:27.780Z,357
2022-07-31T23:08:07.136Z,357
2022-07-31T23:10:13.271Z,357
2022-07-31T23:12:18.701Z,357
2022-07-31T23:14:25.739Z,357
2022-07-31T23:16:31.617Z,357
2022-07-31T23:18:37.123Z,357
2022-07-31T23:20:42.781Z,357
2022-07-31T23:22:48.510Z,357
2022-07-31T23:24:54.371Z,357
2022-07-31T23:26:59.785Z,357
2022-07-31T23:29:05.825Z,357
2022-07-31T23:31:11.447Z,357
2022-07-31T23:33:18.421Z,357
2022-07-31T23:35:23.983Z,357
2022-07-31T23:37:29.785Z,357
2022-07-31T23:39:35.555Z,357
2022-07-31T23:41:41.429Z,357
2022-07-31T23:43:58.412Z,357
2022-07-31T23:46:04.949Z,357
2022-07-31T23:48:18.479Z,357
2022-07-31T23:50:25.165Z,357
2022-07-31T23:52:31.382Z,357
2022-07-31T23:54:37.043Z,357
2022-07-31T23:56:42.764Z,358
2022-07-31T23:58:48.541Z,358
